Terminal Aerodrome Forecast
Issued by NWS

Home | Current Version | Previous Version | Graphics & Text | Print | Product List | Glossary On
Versions: 1 2 3 4 5 6 7 8 9 10 11 12 13 14 15 16
000
FTUS43 KMPX 251135
TAFRWF
TAF
KRWF 251135Z 2512/2612 01008KT P6SM OVC012
     FM252000 34004KT P6SM SCT050
     FM260300 19006KT P6SM BKN050
     FM260700 19013KT P6SM BKN050=

USA.gov is the U.S. government's official web portal to all federal, state and local government web resources and services.